sensor_id;sensor_type;location;lat;lon;timestamp;P1;durP1;ratioP1;P2;durP2;ratioP2
12756;SDS011;31601;48.042;12.240;2023-06-19T00:01:50;11.07;;;8.82;;
12756;SDS011;31601;48.042;12.240;2023-06-19T00:04:16;9.27;;;8.27;;
12756;SDS011;31601;48.042;12.240;2023-06-19T00:06:43;9.52;;;8.63;;
12756;SDS011;31601;48.042;12.240;2023-06-19T00:09:09;10.93;;;8.35;;
12756;SDS011;31601;48.042;12.240;2023-06-19T00:11:36;9.35;;;8.45;;
12756;SDS011;31601;48.042;12.240;2023-06-19T00:14:03;15.07;;;8.95;;
12756;SDS011;31601;48.042;12.240;2023-06-19T00:16:30;9.50;;;8.50;;
12756;SDS011;31601;48.042;12.240;2023-06-19T00:18:57;11.85;;;9.32;;
12756;SDS011;31601;48.042;12.240;2023-06-19T00:21:23;13.00;;;9.25;;
12756;SDS011;31601;48.042;12.240;2023-06-19T00:23:51;10.32;;;8.38;;
12756;SDS011;31601;48.042;12.240;2023-06-19T00:26:18;10.73;;;8.93;;
12756;SDS011;31601;48.042;12.240;2023-06-19T00:28:47;11.43;;;8.38;;
12756;SDS011;31601;48.042;12.240;2023-06-19T00:31:15;11.57;;;8.70;;
12756;SDS011;31601;48.042;12.240;2023-06-19T00:33:42;11.03;;;9.00;;
12756;SDS011;31601;48.042;12.240;2023-06-19T00:36:10;9.55;;;8.50;;
12756;SDS011;31601;48.042;12.240;2023-06-19T00:38:37;9.82;;;8.60;;
12756;SDS011;31601;48.042;12.240;2023-06-19T00:41:04;9.93;;;9.02;;
12756;SDS011;31601;48.042;12.240;2023-06-19T00:43:30;11.25;;;9.13;;
12756;SDS011;31601;48.042;12.240;2023-06-19T00:45:57;10.57;;;9.07;;
12756;SDS011;31601;48.042;12.240;2023-06-19T00:48:25;11.63;;;9.35;;
12756;SDS011;31601;48.042;12.240;2023-06-19T00:50:53;9.82;;;8.82;;
12756;SDS011;31601;48.042;12.240;2023-06-19T00:53:20;10.63;;;9.48;;
12756;SDS011;31601;48.042;12.240;2023-06-19T00:55:48;11.80;;;10.13;;
12756;SDS011;31601;48.042;12.240;2023-06-19T00:58:16;10.95;;;9.48;;
12756;SDS011;31601;48.042;12.240;2023-06-19T01:00:43;11.23;;;9.70;;
12756;SDS011;31601;48.042;12.240;2023-06-19T01:03:09;11.33;;;9.10;;
12756;SDS011;31601;48.042;12.240;2023-06-19T01:05:37;10.23;;;9.23;;
12756;SDS011;31601;48.042;12.240;2023-06-19T01:08:05;10.93;;;9.93;;
12756;SDS011;31601;48.042;12.240;2023-06-19T01:10:36;14.53;;;10.23;;
12756;SDS011;31601;48.042;12.240;2023-06-19T01:13:06;9.95;;;9.00;;
12756;SDS011;31601;48.042;12.240;2023-06-19T01:15:36;10.33;;;8.40;;
12756;SDS011;31601;48.042;12.240;2023-06-19T01:18:05;8.93;;;8.03;;
12756;SDS011;31601;48.042;12.240;2023-06-19T01:20:32;8.93;;;7.97;;
12756;SDS011;31601;48.042;12.240;2023-06-19T01:23:05;8.80;;;8.00;;
12756;SDS011;31601;48.042;12.240;2023-06-19T01:25:33;8.33;;;7.53;;
12756;SDS011;31601;48.042;12.240;2023-06-19T01:28:00;11.00;;;8.27;;
12756;SDS011;31601;48.042;12.240;2023-06-19T01:30:27;10.00;;;8.53;;
12756;SDS011;31601;48.042;12.240;2023-06-19T01:32:54;9.37;;;8.40;;
12756;SDS011;31601;48.042;12.240;2023-06-19T01:35:26;9.50;;;8.07;;
12756;SDS011;31601;48.042;12.240;2023-06-19T01:37:54;9.60;;;7.70;;
12756;SDS011;31601;48.042;12.240;2023-06-19T01:40:23;11.17;;;8.03;;
12756;SDS011;31601;48.042;12.240;2023-06-19T01:42:51;10.10;;;8.57;;
12756;SDS011;31601;48.042;12.240;2023-06-19T01:45:19;10.03;;;8.37;;
12756;SDS011;31601;48.042;12.240;2023-06-19T01:47:46;8.90;;;7.97;;
12756;SDS011;31601;48.042;12.240;2023-06-19T01:50:13;9.47;;;8.03;;
12756;SDS011;31601;48.042;12.240;2023-06-19T01:52:40;9.30;;;8.37;;
12756;SDS011;31601;48.042;12.240;2023-06-19T01:55:07;11.33;;;8.40;;
12756;SDS011;31601;48.042;12.240;2023-06-19T01:57:37;9.47;;;8.13;;
12756;SDS011;31601;48.042;12.240;2023-06-19T02:00:03;9.70;;;8.40;;
12756;SDS011;31601;48.042;12.240;2023-06-19T02:02:32;12.73;;;8.73;;
12756;SDS011;31601;48.042;12.240;2023-06-19T02:04:58;12.50;;;8.82;;
12756;SDS011;31601;48.042;12.240;2023-06-19T02:07:25;9.02;;;8.13;;
12756;SDS011;31601;48.042;12.240;2023-06-19T02:09:51;10.27;;;8.15;;
12756;SDS011;31601;48.042;12.240;2023-06-19T02:12:18;10.35;;;7.57;;
12756;SDS011;31601;48.042;12.240;2023-06-19T02:14:45;8.93;;;8.02;;
12756;SDS011;31601;48.042;12.240;2023-06-19T02:17:12;8.98;;;8.00;;
12756;SDS011;31601;48.042;12.240;2023-06-19T02:19:38;9.35;;;8.38;;
12756;SDS011;31601;48.042;12.240;2023-06-19T02:22:05;10.00;;;9.00;;
12756;SDS011;31601;48.042;12.240;2023-06-19T02:24:32;8.93;;;8.10;;
12756;SDS011;31601;48.042;12.240;2023-06-19T02:26:59;9.17;;;8.27;;
12756;SDS011;31601;48.042;12.240;2023-06-19T02:29:26;9.63;;;8.53;;
12756;SDS011;31601;48.042;12.240;2023-06-19T02:31:55;10.77;;;8.83;;
12756;SDS011;31601;48.042;12.240;2023-06-19T02:34:22;10.37;;;8.63;;
12756;SDS011;31601;48.042;12.240;2023-06-19T02:36:49;10.30;;;9.10;;
12756;SDS011;31601;48.042;12.240;2023-06-19T02:39:15;9.50;;;8.60;;
12756;SDS011;31601;48.042;12.240;2023-06-19T02:41:42;11.77;;;8.50;;
12756;SDS011;31601;48.042;12.240;2023-06-19T02:44:10;10.30;;;9.17;;
12756;SDS011;31601;48.042;12.240;2023-06-19T02:46:37;9.93;;;8.93;;
12756;SDS011;31601;48.042;12.240;2023-06-19T02:49:05;9.35;;;8.27;;
12756;SDS011;31601;48.042;12.240;2023-06-19T02:51:31;9.02;;;8.13;;
12756;SDS011;31601;48.042;12.240;2023-06-19T02:53:58;10.07;;;8.45;;
12756;SDS011;31601;48.042;12.240;2023-06-19T02:56:24;8.68;;;7.78;;
12756;SDS011;31601;48.042;12.240;2023-06-19T02:58:52;9.65;;;8.75;;
12756;SDS011;31601;48.042;12.240;2023-06-19T03:01:19;9.82;;;8.90;;
12756;SDS011;31601;48.042;12.240;2023-06-19T03:03:45;9.73;;;8.73;;
12756;SDS011;31601;48.042;12.240;2023-06-19T03:06:14;10.00;;;9.07;;
12756;SDS011;31601;48.042;12.240;2023-06-19T03:08:40;9.60;;;8.60;;
12756;SDS011;31601;48.042;12.240;2023-06-19T03:11:07;9.68;;;8.77;;
12756;SDS011;31601;48.042;12.240;2023-06-19T03:13:43;10.18;;;8.95;;
12756;SDS011;31601;48.042;12.240;2023-06-19T03:16:11;11.82;;;9.23;;
12756;SDS011;31601;48.042;12.240;2023-06-19T03:18:39;11.27;;;9.15;;
12756;SDS011;31601;48.042;12.240;2023-06-19T03:21:06;11.87;;;9.93;;
12756;SDS011;31601;48.042;12.240;2023-06-19T03:23:33;10.18;;;9.18;;
12756;SDS011;31601;48.042;12.240;2023-06-19T03:26:00;10.43;;;9.23;;
12756;SDS011;31601;48.042;12.240;2023-06-19T03:28:26;10.45;;;9.45;;
12756;SDS011;31601;48.042;12.240;2023-06-19T03:30:53;9.57;;;8.30;;
12756;SDS011;31601;48.042;12.240;2023-06-19T03:33:20;10.43;;;8.63;;
12756;SDS011;31601;48.042;12.240;2023-06-19T03:35:46;11.48;;;9.60;;
12756;SDS011;31601;48.042;12.240;2023-06-19T03:38:12;10.93;;;8.40;;
12756;SDS011;31601;48.042;12.240;2023-06-19T03:40:40;12.45;;;9.40;;
12756;SDS011;31601;48.042;12.240;2023-06-19T03:43:07;10.77;;;9.68;;
12756;SDS011;31601;48.042;12.240;2023-06-19T03:45:33;10.88;;;9.77;;
12756;SDS011;31601;48.042;12.240;2023-06-19T03:47:59;10.20;;;9.20;;
12756;SDS011;31601;48.042;12.240;2023-06-19T03:50:26;9.82;;;8.85;;
12756;SDS011;31601;48.042;12.240;2023-06-19T03:52:52;10.63;;;9.53;;
12756;SDS011;31601;48.042;12.240;2023-06-19T03:55:19;10.00;;;9.07;;
12756;SDS011;31601;48.042;12.240;2023-06-19T03:57:47;10.82;;;9.43;;
12756;SDS011;31601;48.042;12.240;2023-06-19T04:00:13;14.20;;;9.70;;
12756;SDS011;31601;48.042;12.240;2023-06-19T04:02:40;12.45;;;9.88;;
12756;SDS011;31601;48.042;12.240;2023-06-19T04:05:07;10.50;;;9.43;;
12756;SDS011;31601;48.042;12.240;2023-06-19T04:07:34;11.77;;;9.68;;
12756;SDS011;31601;48.042;12.240;2023-06-19T04:10:01;13.25;;;9.77;;
12756;SDS011;31601;48.042;12.240;2023-06-19T04:12:28;13.52;;;9.98;;
12756;SDS011;31601;48.042;12.240;2023-06-19T04:14:56;12.70;;;10.60;;
12756;SDS011;31601;48.042;12.240;2023-06-19T04:17:22;16.45;;;9.65;;
12756;SDS011;31601;48.042;12.240;2023-06-19T04:19:49;10.65;;;9.48;;
12756;SDS011;31601;48.042;12.240;2023-06-19T04:22:15;10.48;;;9.48;;
12756;SDS011;31601;48.042;12.240;2023-06-19T04:24:42;11.52;;;10.23;;
12756;SDS011;31601;48.042;12.240;2023-06-19T04:27:08;14.38;;;10.68;;
12756;SDS011;31601;48.042;12.240;2023-06-19T04:29:34;13.55;;;10.35;;
12756;SDS011;31601;48.042;12.240;2023-06-19T04:32:02;19.63;;;11.57;;
12756;SDS011;31601;48.042;12.240;2023-06-19T04:34:35;12.15;;;10.73;;
12756;SDS011;31601;48.042;12.240;2023-06-19T04:37:02;12.15;;;10.93;;
12756;SDS011;31601;48.042;12.240;2023-06-19T04:39:29;13.15;;;10.50;;
12756;SDS011;31601;48.042;12.240;2023-06-19T04:41:55;12.77;;;10.88;;
12756;SDS011;31601;48.042;12.240;2023-06-19T04:44:22;13.15;;;11.43;;
12756;SDS011;31601;48.042;12.240;2023-06-19T04:46:48;13.40;;;10.90;;
12756;SDS011;31601;48.042;12.240;2023-06-19T04:49:16;13.18;;;10.68;;
12756;SDS011;31601;48.042;12.240;2023-06-19T04:51:42;12.43;;;10.88;;
12756;SDS011;31601;48.042;12.240;2023-06-19T04:54:08;14.07;;;11.98;;
12756;SDS011;31601;48.042;12.240;2023-06-19T04:56:35;12.38;;;10.85;;
12756;SDS011;31601;48.042;12.240;2023-06-19T04:59:01;13.15;;;10.70;;
12756;SDS011;31601;48.042;12.240;2023-06-19T05:01:28;13.07;;;11.65;;
12756;SDS011;31601;48.042;12.240;2023-06-19T05:03:55;12.35;;;11.05;;
12756;SDS011;31601;48.042;12.240;2023-06-19T05:06:25;12.60;;;11.25;;
12756;SDS011;31601;48.042;12.240;2023-06-19T05:08:52;17.55;;;11.00;;
12756;SDS011;31601;48.042;12.240;2023-06-19T05:11:18;12.55;;;10.57;;
12756;SDS011;31601;48.042;12.240;2023-06-19T05:13:45;13.32;;;10.80;;
12756;SDS011;31601;48.042;12.240;2023-06-19T05:16:11;14.63;;;11.20;;
12756;SDS011;31601;48.042;12.240;2023-06-19T05:18:41;13.98;;;10.85;;
12756;SDS011;31601;48.042;12.240;2023-06-19T05:21:07;15.63;;;10.40;;
12756;SDS011;31601;48.042;12.240;2023-06-19T05:23:35;14.05;;;11.63;;
12756;SDS011;31601;48.042;12.240;2023-06-19T05:26:01;12.40;;;10.80;;
12756;SDS011;31601;48.042;12.240;2023-06-19T05:28:28;13.98;;;12.57;;
12756;SDS011;31601;48.042;12.240;2023-06-19T05:30:54;13.15;;;11.45;;
12756;SDS011;31601;48.042;12.240;2023-06-19T05:33:20;12.75;;;11.45;;
12756;SDS011;31601;48.042;12.240;2023-06-19T05:35:48;17.23;;;12.65;;
12756;SDS011;31601;48.042;12.240;2023-06-19T05:38:17;14.27;;;12.73;;
12756;SDS011;31601;48.042;12.240;2023-06-19T05:40:45;17.30;;;12.35;;
12756;SDS011;31601;48.042;12.240;2023-06-19T05:43:11;13.45;;;12.05;;
12756;SDS011;31601;48.042;12.240;2023-06-19T05:45:38;12.75;;;11.38;;
12756;SDS011;31601;48.042;12.240;2023-06-19T05:48:04;18.88;;;12.63;;
12756;SDS011;31601;48.042;12.240;2023-06-19T05:50:31;16.58;;;13.18;;
12756;SDS011;31601;48.042;12.240;2023-06-19T05:52:57;15.82;;;12.40;;
12756;SDS011;31601;48.042;12.240;2023-06-19T05:55:24;14.80;;;12.10;;
12756;SDS011;31601;48.042;12.240;2023-06-19T05:57:53;15.32;;;12.73;;
12756;SDS011;31601;48.042;12.240;2023-06-19T06:00:20;17.00;;;12.80;;
12756;SDS011;31601;48.042;12.240;2023-06-19T06:02:47;18.88;;;13.20;;
12756;SDS011;31601;48.042;12.240;2023-06-19T06:05:15;14.55;;;12.63;;
12756;SDS011;31601;48.042;12.240;2023-06-19T06:07:42;17.15;;;11.98;;
12756;SDS011;31601;48.042;12.240;2023-06-19T06:10:09;16.77;;;12.65;;
12756;SDS011;31601;48.042;12.240;2023-06-19T06:12:36;13.77;;;12.38;;
12756;SDS011;31601;48.042;12.240;2023-06-19T06:15:04;15.73;;;12.73;;
12756;SDS011;31601;48.042;12.240;2023-06-19T06:17:31;13.70;;;12.25;;
12756;SDS011;31601;48.042;12.240;2023-06-19T06:19:58;16.90;;;11.75;;
12756;SDS011;31601;48.042;12.240;2023-06-19T06:22:24;12.95;;;11.68;;
12756;SDS011;31601;48.042;12.240;2023-06-19T06:24:50;13.65;;;10.63;;
12756;SDS011;31601;48.042;12.240;2023-06-19T06:27:18;15.32;;;11.93;;
12756;SDS011;31601;48.042;12.240;2023-06-19T06:29:44;16.02;;;11.63;;
12756;SDS011;31601;48.042;12.240;2023-06-19T06:32:12;12.25;;;10.95;;
12756;SDS011;31601;48.042;12.240;2023-06-19T06:34:38;12.43;;;11.10;;
12756;SDS011;31601;48.042;12.240;2023-06-19T06:37:05;12.35;;;10.95;;
12756;SDS011;31601;48.042;12.240;2023-06-19T06:39:31;13.05;;;11.60;;
12756;SDS011;31601;48.042;12.240;2023-06-19T06:41:58;11.77;;;10.65;;
12756;SDS011;31601;48.042;12.240;2023-06-19T06:44:24;16.40;;;12.02;;
12756;SDS011;31601;48.042;12.240;2023-06-19T06:46:51;14.38;;;11.85;;
12756;SDS011;31601;48.042;12.240;2023-06-19T06:49:18;12.05;;;10.50;;
12756;SDS011;31601;48.042;12.240;2023-06-19T06:51:45;12.48;;;11.27;;
12756;SDS011;31601;48.042;12.240;2023-06-19T06:54:11;14.07;;;11.15;;
12756;SDS011;31601;48.042;12.240;2023-06-19T06:56:38;15.73;;;10.93;;
12756;SDS011;31601;48.042;12.240;2023-06-19T06:59:04;12.55;;;11.27;;
12756;SDS011;31601;48.042;12.240;2023-06-19T07:01:30;11.88;;;10.52;;
12756;SDS011;31601;48.042;12.240;2023-06-19T07:03:57;12.57;;;11.30;;
12756;SDS011;31601;48.042;12.240;2023-06-19T07:06:25;14.23;;;11.63;;
12756;SDS011;31601;48.042;12.240;2023-06-19T07:08:51;11.80;;;10.60;;
12756;SDS011;31601;48.042;12.240;2023-06-19T07:11:18;12.00;;;10.68;;
12756;SDS011;31601;48.042;12.240;2023-06-19T07:13:44;12.50;;;11.20;;
12756;SDS011;31601;48.042;12.240;2023-06-19T07:16:11;11.68;;;10.38;;
12756;SDS011;31601;48.042;12.240;2023-06-19T07:18:37;12.15;;;10.25;;
12756;SDS011;31601;48.042;12.240;2023-06-19T07:21:06;13.45;;;10.45;;
12756;SDS011;31601;48.042;12.240;2023-06-19T07:23:40;11.20;;;10.00;;
12756;SDS011;31601;48.042;12.240;2023-06-19T07:26:08;15.38;;;10.63;;
12756;SDS011;31601;48.042;12.240;2023-06-19T07:28:35;12.82;;;9.75;;
12756;SDS011;31601;48.042;12.240;2023-06-19T07:31:02;11.50;;;10.30;;
12756;SDS011;31601;48.042;12.240;2023-06-19T07:33:28;10.35;;;9.05;;
12756;SDS011;31601;48.042;12.240;2023-06-19T07:35:55;9.65;;;8.75;;
12756;SDS011;31601;48.042;12.240;2023-06-19T07:38:22;9.88;;;8.80;;
12756;SDS011;31601;48.042;12.240;2023-06-19T07:40:50;9.60;;;8.70;;
12756;SDS011;31601;48.042;12.240;2023-06-19T07:43:16;12.27;;;9.23;;
12756;SDS011;31601;48.042;12.240;2023-06-19T07:45:43;9.65;;;8.35;;
12756;SDS011;31601;48.042;12.240;2023-06-19T07:48:09;11.20;;;8.40;;
12756;SDS011;31601;48.042;12.240;2023-06-19T07:50:36;10.70;;;9.20;;
12756;SDS011;31601;48.042;12.240;2023-06-19T07:53:02;9.93;;;8.50;;
12756;SDS011;31601;48.042;12.240;2023-06-19T07:55:29;11.07;;;8.63;;
12756;SDS011;31601;48.042;12.240;2023-06-19T07:57:56;9.38;;;8.40;;
12756;SDS011;31601;48.042;12.240;2023-06-19T08:00:23;9.95;;;8.35;;
12756;SDS011;31601;48.042;12.240;2023-06-19T08:02:49;9.70;;;8.05;;
12756;SDS011;31601;48.042;12.240;2023-06-19T08:05:16;12.48;;;8.30;;
12756;SDS011;31601;48.042;12.240;2023-06-19T08:07:42;8.65;;;7.57;;
12756;SDS011;31601;48.042;12.240;2023-06-19T08:10:09;9.43;;;8.05;;
12756;SDS011;31601;48.042;12.240;2023-06-19T08:12:35;10.85;;;8.65;;
12756;SDS011;31601;48.042;12.240;2023-06-19T08:15:03;11.57;;;7.43;;
12756;SDS011;31601;48.042;12.240;2023-06-19T08:17:30;10.43;;;8.18;;
12756;SDS011;31601;48.042;12.240;2023-06-19T08:19:57;11.60;;;7.68;;
12756;SDS011;31601;48.042;12.240;2023-06-19T08:22:23;8.15;;;7.35;;
12756;SDS011;31601;48.042;12.240;2023-06-19T08:24:50;8.82;;;7.10;;
12756;SDS011;31601;48.042;12.240;2023-06-19T08:27:16;8.63;;;7.72;;
12756;SDS011;31601;48.042;12.240;2023-06-19T08:29:43;10.02;;;7.70;;
12756;SDS011;31601;48.042;12.240;2023-06-19T08:32:10;10.60;;;7.68;;
12756;SDS011;31601;48.042;12.240;2023-06-19T08:34:37;13.90;;;7.50;;
12756;SDS011;31601;48.042;12.240;2023-06-19T08:37:04;10.98;;;7.78;;
12756;SDS011;31601;48.042;12.240;2023-06-19T08:39:30;9.27;;;7.30;;
12756;SDS011;31601;48.042;12.240;2023-06-19T08:41:57;10.32;;;7.00;;
12756;SDS011;31601;48.042;12.240;2023-06-19T08:44:23;10.60;;;7.00;;
12756;SDS011;31601;48.042;12.240;2023-06-19T08:46:50;9.25;;;7.10;;
12756;SDS011;31601;48.042;12.240;2023-06-19T08:49:17;10.45;;;6.90;;
12756;SDS011;31601;48.042;12.240;2023-06-19T08:51:44;7.65;;;6.82;;
12756;SDS011;31601;48.042;12.240;2023-06-19T08:54:10;11.00;;;7.20;;
12756;SDS011;31601;48.042;12.240;2023-06-19T08:56:38;10.43;;;7.18;;
12756;SDS011;31601;48.042;12.240;2023-06-19T08:59:08;8.32;;;7.47;;
12756;SDS011;31601;48.042;12.240;2023-06-19T09:01:35;8.02;;;6.57;;
12756;SDS011;31601;48.042;12.240;2023-06-19T09:04:07;7.53;;;6.18;;
12756;SDS011;31601;48.042;12.240;2023-06-19T09:06:36;7.32;;;6.63;;
12756;SDS011;31601;48.042;12.240;2023-06-19T09:09:04;7.53;;;6.05;;
12756;SDS011;31601;48.042;12.240;2023-06-19T09:11:35;6.70;;;5.38;;
12756;SDS011;31601;48.042;12.240;2023-06-19T09:14:05;10.07;;;5.43;;
12756;SDS011;31601;48.042;12.240;2023-06-19T09:16:36;8.10;;;5.68;;
12756;SDS011;31601;48.042;12.240;2023-06-19T09:19:03;7.03;;;5.40;;
12756;SDS011;31601;48.042;12.240;2023-06-19T09:21:30;5.97;;;5.30;;
12756;SDS011;31601;48.042;12.240;2023-06-19T09:24:03;8.95;;;6.40;;
12756;SDS011;31601;48.042;12.240;2023-06-19T09:26:30;7.03;;;5.93;;
12756;SDS011;31601;48.042;12.240;2023-06-19T09:28:56;9.07;;;6.07;;
12756;SDS011;31601;48.042;12.240;2023-06-19T09:31:31;9.10;;;5.82;;
12756;SDS011;31601;48.042;12.240;2023-06-19T09:33:58;5.78;;;5.20;;
12756;SDS011;31601;48.042;12.240;2023-06-19T09:36:24;7.28;;;6.57;;
12756;SDS011;31601;48.042;12.240;2023-06-19T09:38:52;6.35;;;5.72;;
12756;SDS011;31601;48.042;12.240;2023-06-19T09:41:22;8.05;;;6.43;;
12756;SDS011;31601;48.042;12.240;2023-06-19T09:43:50;6.60;;;5.97;;
12756;SDS011;31601;48.042;12.240;2023-06-19T09:46:22;7.15;;;6.45;;
12756;SDS011;31601;48.042;12.240;2023-06-19T09:48:56;7.20;;;6.50;;
12756;SDS011;31601;48.042;12.240;2023-06-19T09:51:27;9.55;;;5.90;;
12756;SDS011;31601;48.042;12.240;2023-06-19T09:53:57;8.30;;;6.32;;
12756;SDS011;31601;48.042;12.240;2023-06-19T09:56:25;6.65;;;6.05;;
12756;SDS011;31601;48.042;12.240;2023-06-19T09:58:54;7.35;;;6.47;;
12756;SDS011;31601;48.042;12.240;2023-06-19T10:01:25;10.00;;;6.25;;
12756;SDS011;31601;48.042;12.240;2023-06-19T10:04:01;6.47;;;5.82;;
12756;SDS011;31601;48.042;12.240;2023-06-19T10:06:29;8.60;;;6.65;;
12756;SDS011;31601;48.042;12.240;2023-06-19T10:08:56;7.72;;;6.47;;
12756;SDS011;31601;48.042;12.240;2023-06-19T10:11:44;8.60;;;6.57;;
12756;SDS011;31601;48.042;12.240;2023-06-19T10:14:12;8.45;;;6.10;;
12756;SDS011;31601;48.042;12.240;2023-06-19T10:16:39;6.47;;;5.82;;
12756;SDS011;31601;48.042;12.240;2023-06-19T10:19:11;6.10;;;5.50;;
12756;SDS011;31601;48.042;12.240;2023-06-19T10:21:43;9.88;;;5.88;;
12756;SDS011;31601;48.042;12.240;2023-06-19T10:24:13;6.35;;;5.47;;
12756;SDS011;31601;48.042;12.240;2023-06-19T10:26:40;7.15;;;5.10;;
12756;SDS011;31601;48.042;12.240;2023-06-19T10:29:14;6.65;;;5.15;;
12756;SDS011;31601;48.042;12.240;2023-06-19T10:31:41;5.88;;;4.75;;
12756;SDS011;31601;48.042;12.240;2023-06-19T10:34:08;6.63;;;4.25;;
12756;SDS011;31601;48.042;12.240;2023-06-19T10:36:34;5.10;;;4.55;;
12756;SDS011;31601;48.042;12.240;2023-06-19T10:39:01;5.13;;;4.50;;
12756;SDS011;31601;48.042;12.240;2023-06-19T10:41:27;4.68;;;4.28;;
12756;SDS011;31601;48.042;12.240;2023-06-19T10:43:54;4.85;;;4.25;;
12756;SDS011;31601;48.042;12.240;2023-06-19T10:46:24;4.93;;;4.43;;
12756;SDS011;31601;48.042;12.240;2023-06-19T10:48:55;6.30;;;4.25;;
12756;SDS011;31601;48.042;12.240;2023-06-19T10:51:26;4.20;;;3.80;;
12756;SDS011;31601;48.042;12.240;2023-06-19T10:53:53;6.10;;;3.88;;
12756;SDS011;31601;48.042;12.240;2023-06-19T10:56:19;4.18;;;3.63;;
12756;SDS011;31601;48.042;12.240;2023-06-19T10:58:46;4.18;;;3.78;;
12756;SDS011;31601;48.042;12.240;2023-06-19T11:01:13;7.05;;;3.83;;
12756;SDS011;31601;48.042;12.240;2023-06-19T11:03:41;4.40;;;4.00;;
12756;SDS011;31601;48.042;12.240;2023-06-19T11:06:07;4.28;;;3.88;;
12756;SDS011;31601;48.042;12.240;2023-06-19T11:08:34;4.13;;;3.63;;
12756;SDS011;31601;48.042;12.240;2023-06-19T11:11:00;4.15;;;3.83;;
12756;SDS011;31601;48.042;12.240;2023-06-19T11:13:28;5.25;;;3.55;;
12756;SDS011;31601;48.042;12.240;2023-06-19T11:15:54;4.18;;;3.63;;
12756;SDS011;31601;48.042;12.240;2023-06-19T11:18:20;7.18;;;3.90;;
12756;SDS011;31601;48.042;12.240;2023-06-19T11:20:49;4.97;;;3.60;;
12756;SDS011;31601;48.042;12.240;2023-06-19T11:23:17;4.28;;;3.88;;
12756;SDS011;31601;48.042;12.240;2023-06-19T11:25:51;4.20;;;3.80;;
12756;SDS011;31601;48.042;12.240;2023-06-19T11:28:17;4.72;;;4.07;;
12756;SDS011;31601;48.042;12.240;2023-06-19T11:30:47;7.82;;;3.65;;
12756;SDS011;31601;48.042;12.240;2023-06-19T11:33:15;4.88;;;3.83;;
12756;SDS011;31601;48.042;12.240;2023-06-19T11:35:46;5.78;;;3.83;;
12756;SDS011;31601;48.042;12.240;2023-06-19T11:38:16;6.72;;;4.20;;
12756;SDS011;31601;48.042;12.240;2023-06-19T11:40:43;5.35;;;4.32;;
12756;SDS011;31601;48.042;12.240;2023-06-19T11:43:10;7.70;;;4.28;;
12756;SDS011;31601;48.042;12.240;2023-06-19T11:45:47;9.38;;;4.28;;
12756;SDS011;31601;48.042;12.240;2023-06-19T11:48:20;7.00;;;3.97;;
12756;SDS011;31601;48.042;12.240;2023-06-19T11:50:49;5.40;;;4.15;;
12756;SDS011;31601;48.042;12.240;2023-06-19T11:53:16;6.00;;;4.20;;
12756;SDS011;31601;48.042;12.240;2023-06-19T11:55:42;8.35;;;4.10;;
12756;SDS011;31601;48.042;12.240;2023-06-19T11:58:09;4.80;;;4.38;;
12756;SDS011;31601;48.042;12.240;2023-06-19T12:00:36;5.88;;;4.20;;
12756;SDS011;31601;48.042;12.240;2023-06-19T12:03:02;10.10;;;4.85;;
12756;SDS011;31601;48.042;12.240;2023-06-19T12:05:29;5.50;;;4.80;;
12756;SDS011;31601;48.042;12.240;2023-06-19T12:07:57;4.90;;;4.50;;
12756;SDS011;31601;48.042;12.240;2023-06-19T12:10:27;5.28;;;4.78;;
12756;SDS011;31601;48.042;12.240;2023-06-19T12:12:53;5.50;;;4.65;;
12756;SDS011;31601;48.042;12.240;2023-06-19T12:15:19;10.20;;;5.07;;
12756;SDS011;31601;48.042;12.240;2023-06-19T12:17:46;7.88;;;4.60;;
12756;SDS011;31601;48.042;12.240;2023-06-19T12:20:13;8.57;;;4.40;;
12756;SDS011;31601;48.042;12.240;2023-06-19T12:22:39;5.25;;;4.40;;
12756;SDS011;31601;48.042;12.240;2023-06-19T12:25:09;4.82;;;4.43;;
12756;SDS011;31601;48.042;12.240;2023-06-19T12:27:36;5.30;;;4.80;;
12756;SDS011;31601;48.042;12.240;2023-06-19T12:30:03;6.43;;;4.60;;
12756;SDS011;31601;48.042;12.240;2023-06-19T12:32:30;5.03;;;4.53;;
12756;SDS011;31601;48.042;12.240;2023-06-19T12:34:57;7.18;;;4.95;;
12756;SDS011;31601;48.042;12.240;2023-06-19T12:37:23;5.85;;;4.50;;
12756;SDS011;31601;48.042;12.240;2023-06-19T12:39:50;4.97;;;4.47;;
12756;SDS011;31601;48.042;12.240;2023-06-19T12:42:18;6.28;;;4.80;;
12756;SDS011;31601;48.042;12.240;2023-06-19T12:44:45;5.53;;;4.68;;
12756;SDS011;31601;48.042;12.240;2023-06-19T12:47:11;5.97;;;4.60;;
12756;SDS011;31601;48.042;12.240;2023-06-19T12:49:37;6.05;;;5.35;;
12756;SDS011;31601;48.042;12.240;2023-06-19T12:52:04;7.80;;;4.85;;
12756;SDS011;31601;48.042;12.240;2023-06-19T12:54:31;7.32;;;5.35;;
12756;SDS011;31601;48.042;12.240;2023-06-19T12:56:58;10.38;;;5.32;;
12756;SDS011;31601;48.042;12.240;2023-06-19T12:59:26;7.57;;;5.20;;
12756;SDS011;31601;48.042;12.240;2023-06-19T13:01:54;8.40;;;4.95;;
12756;SDS011;31601;48.042;12.240;2023-06-19T13:04:20;6.00;;;5.40;;
12756;SDS011;31601;48.042;12.240;2023-06-19T13:06:47;5.40;;;4.90;;
12756;SDS011;31601;48.042;12.240;2023-06-19T13:09:13;5.13;;;4.53;;
12756;SDS011;31601;48.042;12.240;2023-06-19T13:11:40;5.10;;;4.60;;
12756;SDS011;31601;48.042;12.240;2023-06-19T13:14:06;6.72;;;4.68;;
12756;SDS011;31601;48.042;12.240;2023-06-19T13:16:34;7.70;;;4.65;;
12756;SDS011;31601;48.042;12.240;2023-06-19T13:19:01;7.93;;;4.80;;
12756;SDS011;31601;48.042;12.240;2023-06-19T13:21:28;5.43;;;4.93;;
12756;SDS011;31601;48.042;12.240;2023-06-19T13:23:55;5.47;;;4.80;;
12756;SDS011;31601;48.042;12.240;2023-06-19T13:26:21;12.38;;;5.25;;
12756;SDS011;31601;48.042;12.240;2023-06-19T13:28:48;6.95;;;4.75;;
12756;SDS011;31601;48.042;12.240;2023-06-19T13:31:14;11.90;;;5.03;;
12756;SDS011;31601;48.042;12.240;2023-06-19T13:33:42;6.90;;;5.07;;
12756;SDS011;31601;48.042;12.240;2023-06-19T13:36:09;6.28;;;5.03;;
12756;SDS011;31601;48.042;12.240;2023-06-19T13:38:35;5.15;;;4.63;;
12756;SDS011;31601;48.042;12.240;2023-06-19T13:41:02;5.60;;;5.10;;
12756;SDS011;31601;48.042;12.240;2023-06-19T13:43:28;5.47;;;4.95;;
12756;SDS011;31601;48.042;12.240;2023-06-19T13:45:54;5.85;;;5.35;;
12756;SDS011;31601;48.042;12.240;2023-06-19T13:48:21;5.95;;;5.00;;
12756;SDS011;31601;48.042;12.240;2023-06-19T13:50:48;7.88;;;5.22;;
12756;SDS011;31601;48.042;12.240;2023-06-19T13:53:15;7.45;;;5.15;;
12756;SDS011;31601;48.042;12.240;2023-06-19T13:55:41;7.07;;;5.03;;
12756;SDS011;31601;48.042;12.240;2023-06-19T13:58:08;5.20;;;4.80;;
12756;SDS011;31601;48.042;12.240;2023-06-19T14:00:34;7.05;;;4.80;;
12756;SDS011;31601;48.042;12.240;2023-06-19T14:03:01;7.25;;;5.38;;
12756;SDS011;31601;48.042;12.240;2023-06-19T14:05:31;5.47;;;4.85;;
12756;SDS011;31601;48.042;12.240;2023-06-19T14:07:59;7.35;;;5.22;;
12756;SDS011;31601;48.042;12.240;2023-06-19T14:10:25;5.45;;;4.95;;
12756;SDS011;31601;48.042;12.240;2023-06-19T14:12:52;6.18;;;5.13;;
12756;SDS011;31601;48.042;12.240;2023-06-19T14:15:18;6.63;;;4.93;;
12756;SDS011;31601;48.042;12.240;2023-06-19T14:17:45;5.88;;;5.38;;
12756;SDS011;31601;48.042;12.240;2023-06-19T14:20:11;6.93;;;4.93;;
12756;SDS011;31601;48.042;12.240;2023-06-19T14:22:38;5.47;;;4.97;;
12756;SDS011;31601;48.042;12.240;2023-06-19T14:25:06;13.38;;;5.47;;
12756;SDS011;31601;48.042;12.240;2023-06-19T14:27:33;6.22;;;5.40;;